Time,TemperatureF,DewpointF,PressureIn,WindDirection,WindDirectionDegrees,WindSpeedMPH,WindSpeedGustMPH,Humidity,HourlyPrecipIn,Conditions,Clouds,dailyrainin,SolarRadiationWatts/m^2,SoftwareType,DateUTC
2013-09-08 00:02:00,72.7,69.3,29.73,ENE,70,3.0,7.0,89,0.00,,,0.00,0,Wunderground v.1.15,2013-09-08 05:02:00,
2013-09-08 00:08:00,72.3,68.9,29.73,ENE,70,4.0,7.0,89,0.00,,,0.00,0,Wunderground v.1.15,2013-09-08 05:08:00,
2013-09-08 00:13:00,72.4,69.0,29.73,ENE,70,5.0,5.0,89,0.00,,,0.00,0,Wunderground v.1.15,2013-09-08 05:13:00,
2013-09-08 00:18:00,72.5,69.1,29.73,ENE,69,4.0,8.0,89,0.00,,,0.00,0,Wunderground v.1.15,2013-09-08 05:18:00,
2013-09-08 00:23:00,72.6,69.2,29.73,ENE,69,5.0,5.0,89,0.00,,,0.00,0,Wunderground v.1.15,2013-09-08 05:23:00,
2013-09-08 00:28:00,72.6,69.2,29.73,ENE,69,3.0,5.0,89,0.00,,,0.00,0,Wunderground v.1.15,2013-09-08 05:28:00,
2013-09-08 00:34:00,72.5,69.1,29.73,ENE,69,1.0,3.0,89,0.00,,,0.00,0,Wunderground v.1.15,2013-09-08 05:34:00,
2013-09-08 00:39:00,72.2,68.8,29.73,ENE,69,2.0,4.0,89,0.00,,,0.00,0,Wunderground v.1.15,2013-09-08 05:39:00,
2013-09-08 00:44:00,72.1,68.7,29.73,ENE,69,1.0,3.0,89,0.00,,,0.00,0,Wunderground v.1.15,2013-09-08 05:44:00,
2013-09-08 00:49:00,72.1,68.7,29.73,ENE,69,1.0,3.0,89,0.00,,,0.00,0,Wunderground v.1.15,2013-09-08 05:49:00,
2013-09-08 00:54:00,72.2,68.8,29.73,ENE,69,0.0,1.0,89,0.00,,,0.00,0,Wunderground v.1.15,2013-09-08 05:54:00,
2013-09-08 00:59:00,72.2,68.8,29.73,ENE,69,1.0,2.0,89,0.00,,,0.00,0,Wunderground v.1.15,2013-09-08 05:59:00,
2013-09-08 01:04:00,72.5,69.1,29.73,ENE,69,2.0,3.0,89,0.00,,,0.00,0,Wunderground v.1.15,2013-09-08 06:04:00,
2013-09-08 01:09:00,72.6,69.2,29.73,ENE,69,1.0,3.0,89,0.00,,,0.00,0,Wunderground v.1.15,2013-09-08 06:09:00,
2013-09-08 01:14:00,72.7,69.3,29.73,ENE,69,4.0,4.0,89,0.00,,,0.00,0,Wunderground v.1.15,2013-09-08 06:14:00,
2013-09-08 01:19:00,72.5,69.1,29.73,ENE,69,2.0,4.0,89,0.00,,,0.00,0,Wunderground v.1.15,2013-09-08 06:19:00,
2013-09-08 01:24:00,72.5,69.1,29.73,ENE,69,4.0,4.0,89,0.00,,,0.00,0,Wunderground v.1.15,2013-09-08 06:24:00,
2013-09-08 01:29:00,72.4,69.0,29.73,ENE,69,1.0,4.0,89,0.00,,,0.00,0,Wunderground v.1.15,2013-09-08 06:29:00,
2013-09-08 01:35:00,72.4,69.0,29.73,ENE,69,1.0,3.0,89,0.00,,,0.00,0,Wunderground v.1.15,2013-09-08 06:35:00,
2013-09-08 01:40:00,72.4,69.0,29.73,ENE,69,4.0,4.0,89,0.00,,,0.00,0,Wunderground v.1.15,2013-09-08 06:40:00,
2013-09-08 01:45:00,72.4,69.0,29.73,ENE,69,2.0,4.0,89,0.00,,,0.00,0,Wunderground v.1.15,2013-09-08 06:45:00,
2013-09-08 01:50:00,72.5,69.1,29.72,ENE,69,3.0,3.0,89,0.00,,,0.00,0,Wunderground v.1.15,2013-09-08 06:50:00,
2013-09-08 01:55:00,72.4,69.0,29.72,ENE,69,3.0,4.0,89,0.00,,,0.00,0,Wunderground v.1.15,2013-09-08 06:55:00,
2013-09-08 02:00:00,72.1,68.7,29.72,ENE,69,4.0,4.0,89,0.00,,,0.00,0,Wunderground v.1.15,2013-09-08 07:00:00,
2013-09-08 02:05:00,72.3,68.9,29.72,ENE,69,3.0,7.0,89,0.00,,,0.00,0,Wunderground v.1.15,2013-09-08 07:05:00,
2013-09-08 02:10:00,72.4,69.0,29.72,ENE,69,3.0,4.0,89,0.00,,,0.00,0,Wunderground v.1.15,2013-09-08 07:10:00,
2013-09-08 02:15:00,72.4,69.0,29.72,ENE,69,2.0,4.0,89,0.00,,,0.00,0,Wunderground v.1.15,2013-09-08 07:15:00,
2013-09-08 02:20:00,72.3,68.9,29.71,ENE,69,2.0,3.0,89,0.00,,,0.00,0,Wunderground v.1.15,2013-09-08 07:20:00,
2013-09-08 02:25:00,71.9,68.5,29.71,ENE,69,2.0,5.0,89,0.00,,,0.00,0,Wunderground v.1.15,2013-09-08 07:25:00,
2013-09-08 02:30:00,71.4,68.0,29.71,ENE,69,2.0,3.0,89,0.00,,,0.00,0,Wunderground v.1.15,2013-09-08 07:30:00,
2013-09-08 02:35:00,71.3,67.9,29.71,ENE,69,2.0,4.0,89,0.00,,,0.00,0,Wunderground v.1.15,2013-09-08 07:35:00,
2013-09-08 02:40:00,71.6,68.2,29.70,ENE,78,5.0,5.0,89,0.00,,,0.00,0,Wunderground v.1.15,2013-09-08 07:40:00,
2013-09-08 02:45:00,71.8,68.4,29.70,ENE,78,2.0,5.0,89,0.00,,,0.00,0,Wunderground v.1.15,2013-09-08 07:45:00,
2013-09-08 02:50:00,71.8,68.4,29.70,ENE,78,2.0,3.0,89,0.00,,,0.00,0,Wunderground v.1.15,2013-09-08 07:50:00,
2013-09-08 02:55:00,71.9,68.5,29.71,ENE,78,4.0,5.0,89,0.00,,,0.00,0,Wunderground v.1.15,2013-09-08 07:55:00,
2013-09-08 03:00:00,71.9,68.5,29.71,ENE,78,4.0,5.0,89,0.00,,,0.00,0,Wunderground v.1.15,2013-09-08 08:00:00,
2013-09-08 03:05:00,71.8,68.4,29.70,ENE,78,2.0,5.0,89,0.00,,,0.00,0,Wunderground v.1.15,2013-09-08 08:05:00,
2013-09-08 03:10:00,71.7,68.3,29.70,ENE,78,3.0,3.0,89,0.00,,,0.00,0,Wunderground v.1.15,2013-09-08 08:10:00,
2013-09-08 03:15:00,71.5,68.1,29.71,ENE,78,3.0,4.0,89,0.00,,,0.00,0,Wunderground v.1.15,2013-09-08 08:15:00,
2013-09-08 03:20:00,71.4,68.0,29.71,ENE,78,3.0,3.0,89,0.00,,,0.00,0,Wunderground v.1.15,2013-09-08 08:20:00,
2013-09-08 03:25:00,71.4,68.0,29.71,ENE,78,2.0,5.0,89,0.00,,,0.00,0,Wunderground v.1.15,2013-09-08 08:25:00,
2013-09-08 03:30:00,71.4,68.0,29.71,ENE,78,3.0,5.0,89,0.00,,,0.00,0,Wunderground v.1.15,2013-09-08 08:30:00,
2013-09-08 03:35:00,71.4,68.0,29.70,ENE,78,3.0,5.0,89,0.00,,,0.00,0,Wunderground v.1.15,2013-09-08 08:35:00,
2013-09-08 03:40:00,71.3,67.9,29.70,ENE,78,2.0,4.0,89,0.00,,,0.00,0,Wunderground v.1.15,2013-09-08 08:40:00,
2013-09-08 03:45:00,71.2,67.8,29.70,ENE,78,3.0,4.0,89,0.00,,,0.00,0,Wunderground v.1.15,2013-09-08 08:45:00,
2013-09-08 03:50:00,71.1,67.7,29.69,ENE,78,3.0,3.0,89,0.00,,,0.00,0,Wunderground v.1.15,2013-09-08 08:50:00,
2013-09-08 03:55:00,70.9,67.5,29.69,ENE,78,2.0,5.0,89,0.00,,,0.00,0,Wunderground v.1.15,2013-09-08 08:55:00,
2013-09-08 04:00:00,70.9,67.5,29.70,ENE,78,2.0,3.0,89,0.00,,,0.00,0,Wunderground v.1.15,2013-09-08 09:00:00,
2013-09-08 04:05:00,70.7,67.3,29.70,ENE,78,2.0,3.0,89,0.00,,,0.00,0,Wunderground v.1.15,2013-09-08 09:05:00,
2013-09-08 04:10:00,70.6,67.2,29.70,ENE,78,2.0,3.0,89,0.00,,,0.00,0,Wunderground v.1.15,2013-09-08 09:10:00,
2013-09-08 04:15:00,70.5,67.1,29.70,ENE,78,0.0,3.0,89,0.00,,,0.00,0,Wunderground v.1.15,2013-09-08 09:15:00,
2013-09-08 04:20:00,70.4,67.0,29.70,ENE,78,1.0,1.0,89,0.00,,,0.00,0,Wunderground v.1.15,2013-09-08 09:20:00,
2013-09-08 04:25:00,70.3,66.9,29.70,ENE,78,0.0,2.0,89,0.00,,,0.00,0,Wunderground v.1.15,2013-09-08 09:25:00,
2013-09-08 04:30:00,70.3,66.9,29.70,ENE,78,0.0,4.0,89,0.00,,,0.00,0,Wunderground v.1.15,2013-09-08 09:30:00,
2013-09-08 04:35:00,70.3,66.9,29.70,ENE,78,2.0,4.0,89,0.00,,,0.00,0,Wunderground v.1.15,2013-09-08 09:35:00,
2013-09-08 04:40:00,70.2,66.8,29.70,ENE,78,0.0,2.0,89,0.00,,,0.00,0,Wunderground v.1.15,2013-09-08 09:40:00,
2013-09-08 04:45:00,70.0,66.6,29.70,ENE,78,0.0,2.0,89,0.00,,,0.00,0,Wunderground v.1.15,2013-09-08 09:45:00,
2013-09-08 04:50:00,69.6,66.2,29.69,ENE,78,1.0,1.0,89,0.00,,,0.00,0,Wunderground v.1.15,2013-09-08 09:50:00,
2013-09-08 04:55:00,69.6,66.2,29.69,ENE,78,3.0,5.0,89,0.00,,,0.00,0,Wunderground v.1.15,2013-09-08 09:55:00,
2013-09-08 05:00:00,70.0,66.6,29.69,ENE,78,2.0,3.0,89,0.00,,,0.00,0,Wunderground v.1.15,2013-09-08 10:00:00,
2013-09-08 05:05:00,69.9,66.5,29.69,ENE,78,2.0,3.0,89,0.00,,,0.00,0,Wunderground v.1.15,2013-09-08 10:05:00,
2013-09-08 05:10:00,69.5,66.1,29.69,ENE,78,2.0,2.0,89,0.00,,,0.00,0,Wunderground v.1.15,2013-09-08 10:10:00,
2013-09-08 05:15:00,69.4,66.0,29.69,ENE,78,2.0,2.0,89,0.00,,,0.00,0,Wunderground v.1.15,2013-09-08 10:15:00,
2013-09-08 05:20:00,69.2,65.8,29.69,ENE,78,2.0,3.0,89,0.00,,,0.00,0,Wunderground v.1.15,2013-09-08 10:20:00,
2013-09-08 05:25:00,69.1,65.7,29.69,ENE,78,3.0,4.0,89,0.00,,,0.00,0,Wunderground v.1.15,2013-09-08 10:25:00,
2013-09-08 05:30:00,69.5,66.1,29.69,ENE,78,3.0,4.0,89,0.00,,,0.00,0,Wunderground v.1.15,2013-09-08 10:30:00,
2013-09-08 05:35:00,69.5,66.1,29.69,ENE,78,4.0,4.0,89,0.00,,,0.00,0,Wunderground v.1.15,2013-09-08 10:35:00,
2013-09-08 05:40:00,69.3,65.9,29.69,ENE,78,3.0,3.0,89,0.00,,,0.00,0,Wunderground v.1.15,2013-09-08 10:40:00,
2013-09-08 05:45:00,69.2,65.8,29.68,ENE,78,2.0,4.0,89,0.00,,,0.00,0,Wunderground v.1.15,2013-09-08 10:45:00,
2013-09-08 05:50:00,69.0,65.6,29.68,ENE,78,2.0,3.0,89,0.00,,,0.00,0,Wunderground v.1.15,2013-09-08 10:50:00,
2013-09-08 05:55:00,69.3,65.9,29.68,ENE,78,4.0,5.0,89,0.00,,,0.00,0,Wunderground v.1.15,2013-09-08 10:55:00,
2013-09-08 06:00:00,69.5,66.1,29.68,ENE,78,5.0,5.0,89,0.00,,,0.00,0,Wunderground v.1.15,2013-09-08 11:00:00,
2013-09-08 06:05:00,69.7,66.3,29.68,ENE,78,1.0,5.0,89,0.00,,,0.00,0,Wunderground v.1.15,2013-09-08 11:05:00,
2013-09-08 06:10:00,69.7,66.3,29.68,ENE,78,3.0,3.0,89,0.00,,,0.00,0,Wunderground v.1.15,2013-09-08 11:10:00,
2013-09-08 06:15:00,69.8,66.4,29.68,ENE,78,0.0,4.0,89,0.00,,,0.00,0,Wunderground v.1.15,2013-09-08 11:15:00,
2013-09-08 06:20:00,69.8,66.4,29.68,ENE,78,0.0,1.0,89,0.00,,,0.00,0,Wunderground v.1.15,2013-09-08 11:20:00,
2013-09-08 06:25:00,69.7,66.3,29.68,ENE,78,0.0,1.0,89,0.00,,,0.00,0,Wunderground v.1.15,2013-09-08 11:25:00,
2013-09-08 06:30:00,69.7,66.3,29.68,ENE,78,2.0,2.0,89,0.00,,,0.00,0,Wunderground v.1.15,2013-09-08 11:30:00,
2013-09-08 06:35:00,69.7,66.3,29.68,ENE,78,2.0,3.0,89,0.00,,,0.00,0,Wunderground v.1.15,2013-09-08 11:35:00,
2013-09-08 06:40:00,69.6,66.2,29.68,ENE,78,0.0,2.0,89,0.00,,,0.00,0,Wunderground v.1.15,2013-09-08 11:40:00,
2013-09-08 06:45:00,69.4,66.0,29.68,ENE,78,2.0,2.0,89,0.00,,,0.00,0,Wunderground v.1.15,2013-09-08 11:45:00,
2013-09-08 06:50:00,69.2,65.8,29.68,ENE,78,0.0,1.0,89,0.00,,,0.00,0,Wunderground v.1.15,2013-09-08 11:50:00,
2013-09-08 06:55:00,69.2,65.8,29.68,ENE,78,0.0,1.0,89,0.00,,,0.00,0,Wunderground v.1.15,2013-09-08 11:55:00,
2013-09-08 07:00:00,69.2,65.8,29.68,ENE,78,3.0,3.0,89,0.00,,,0.00,0,Wunderground v.1.15,2013-09-08 12:00:00,
2013-09-08 07:05:00,69.3,65.9,29.68,ENE,78,1.0,4.0,89,0.00,,,0.00,0,Wunderground v.1.15,2013-09-08 12:05:00,
2013-09-08 07:10:00,69.3,65.9,29.68,ENE,78,1.0,2.0,89,0.00,,,0.00,0,Wunderground v.1.15,2013-09-08 12:10:00,
2013-09-08 07:15:00,69.0,65.9,29.68,ENE,78,3.0,3.0,90,0.00,,,0.00,0,Wunderground v.1.15,2013-09-08 12:15:00,
2013-09-08 07:20:00,68.8,65.4,29.68,ENE,78,2.0,2.0,89,0.00,,,0.00,5,Wunderground v.1.15,2013-09-08 12:20:00,
2013-09-08 07:25:00,68.8,65.4,29.69,ENE,78,1.0,2.0,89,0.00,,,0.00,9,Wunderground v.1.15,2013-09-08 12:25:00,
2013-09-08 07:30:00,69.0,65.9,29.70,ENE,78,4.0,7.0,90,0.00,,,0.00,12,Wunderground v.1.15,2013-09-08 12:30:00,
2013-09-08 07:35:00,69.7,66.3,29.73,North,5,8.0,16.0,89,0.00,,,0.00,0,Wunderground v.1.15,2013-09-08 12:35:00,
2013-09-08 07:40:00,70.4,67.0,29.71,East,79,7.0,9.0,89,0.00,,,0.00,25,Wunderground v.1.15,2013-09-08 12:40:00,
2013-09-08 07:45:00,70.8,67.4,29.71,ENE,72,4.0,9.0,89,0.00,,,0.00,39,Wunderground v.1.15,2013-09-08 12:45:00,
2013-09-08 07:50:00,70.9,67.5,29.72,NNE,15,8.0,8.0,89,0.00,,,0.00,28,Wunderground v.1.15,2013-09-08 12:50:00,
2013-09-08 07:55:00,70.9,67.5,29.72,North,355,4.0,10.0,89,0.00,,,0.00,37,Wunderground v.1.15,2013-09-08 12:55:00,
2013-09-08 08:00:00,71.1,68.0,29.71,North,355,3.0,5.0,90,0.00,,,0.00,67,Wunderground v.1.15,2013-09-08 13:00:00,
2013-09-08 08:05:00,71.2,68.1,29.72,North,360,5.0,7.0,90,0.00,,,0.00,83,Wunderground v.1.15,2013-09-08 13:05:00,
2013-09-08 08:10:00,71.2,68.1,29.72,NNE,24,5.0,8.0,90,0.00,,,0.00,60,Wunderground v.1.15,2013-09-08 13:10:00,
2013-09-08 08:16:00,71.3,68.2,29.71,NNE,26,4.0,8.0,90,0.00,,,0.00,100,Wunderground v.1.15,2013-09-08 13:16:00,
2013-09-08 08:21:00,71.3,68.2,29.72,NNE,26,6.0,6.0,90,0.00,,,0.00,113,Wunderground v.1.15,2013-09-08 13:21:00,
2013-09-08 08:26:00,71.4,68.0,29.72,NE,36,5.0,9.0,89,0.00,,,0.00,83,Wunderground v.1.15,2013-09-08 13:26:00,
2013-09-08 08:31:00,71.5,68.1,29.71,NE,45,5.0,8.0,89,0.00,,,0.00,102,Wunderground v.1.15,2013-09-08 13:31:00,
2013-09-08 08:36:00,71.6,68.2,29.71,NE,45,5.0,9.0,89,0.00,,,0.00,98,Wunderground v.1.15,2013-09-08 13:36:00,
2013-09-08 08:41:00,71.8,68.7,29.71,NE,51,7.0,7.0,90,0.00,,,0.00,121,Wunderground v.1.15,2013-09-08 13:41:00,
2013-09-08 08:46:00,71.9,68.8,29.70,ENE,62,8.0,10.0,90,0.00,,,0.00,230,Wunderground v.1.15,2013-09-08 13:46:00,
2013-09-08 08:51:00,72.3,68.9,29.71,NE,56,7.0,11.0,89,0.00,,,0.00,207,Wunderground v.1.15,2013-09-08 13:51:00,
2013-09-08 08:56:00,72.4,69.0,29.70,ENE,65,5.0,11.0,89,0.00,,,0.00,139,Wunderground v.1.15,2013-09-08 13:56:00,
2013-09-08 09:01:00,72.5,69.1,29.70,ENE,65,5.0,10.0,89,0.00,,,0.00,114,Wunderground v.1.15,2013-09-08 14:01:00,
2013-09-08 09:06:00,72.7,69.3,29.70,ENE,65,4.0,10.0,89,0.00,,,0.00,197,Wunderground v.1.15,2013-09-08 14:06:00,
2013-09-08 09:11:00,73.0,69.6,29.70,ENE,67,5.0,9.0,89,0.00,,,0.00,135,Wunderground v.1.15,2013-09-08 14:11:00,
2013-09-08 09:16:00,72.7,69.3,29.70,ENE,67,10.0,12.0,89,0.00,,,0.00,135,Wunderground v.1.15,2013-09-08 14:16:00,
2013-09-08 09:21:00,73.0,69.6,29.70,ENE,65,9.0,10.0,89,0.00,,,0.00,171,Wunderground v.1.15,2013-09-08 14:21:00,
2013-09-08 09:26:00,73.1,69.7,29.70,East,80,7.0,13.0,89,0.00,,,0.00,137,Wunderground v.1.15,2013-09-08 14:26:00,
2013-09-08 09:31:00,73.3,69.9,29.69,East,80,3.0,8.0,89,0.00,,,0.00,155,Wunderground v.1.15,2013-09-08 14:31:00,
2013-09-08 09:36:00,73.3,69.9,29.69,ENE,65,4.0,10.0,89,0.00,,,0.00,160,Wunderground v.1.15,2013-09-08 14:36:00,
2013-09-08 09:41:00,73.4,70.0,29.69,ENE,76,10.0,10.0,89,0.00,,,0.00,216,Wunderground v.1.15,2013-09-08 14:41:00,
2013-09-08 09:46:00,73.6,70.2,29.69,East,86,9.0,12.0,89,0.00,,,0.00,192,Wunderground v.1.15,2013-09-08 14:46:00,
2013-09-08 09:51:00,73.6,70.2,29.69,East,90,13.0,14.0,89,0.00,,,0.00,294,Wunderground v.1.15,2013-09-08 14:51:00,
2013-09-08 09:56:00,73.7,70.3,29.69,East,96,13.0,15.0,89,0.00,,,0.00,301,Wunderground v.1.15,2013-09-08 14:56:00,
2013-09-08 10:01:00,73.9,70.5,29.69,East,84,14.0,19.0,89,0.00,,,0.00,510,Wunderground v.1.15,2013-09-08 15:01:00,
2013-09-08 10:06:00,74.2,70.7,29.69,East,87,13.0,19.0,89,0.00,,,0.00,316,Wunderground v.1.15,2013-09-08 15:06:00,
2013-09-08 10:11:00,74.3,70.8,29.69,ENE,78,11.0,15.0,89,0.00,,,0.00,338,Wunderground v.1.15,2013-09-08 15:11:00,
2013-09-08 10:16:00,74.6,71.1,29.69,ESE,112,8.0,16.0,89,0.00,,,0.00,475,Wunderground v.1.15,2013-09-08 15:16:00,
2013-09-08 10:21:00,75.0,71.5,29.69,East,85,6.0,12.0,89,0.00,,,0.00,287,Wunderground v.1.15,2013-09-08 15:21:00,
2013-09-08 10:26:00,74.9,71.1,29.69,East,82,13.0,15.0,88,0.00,,,0.00,357,Wunderground v.1.15,2013-09-08 15:26:00,
2013-09-08 10:31:00,75.1,71.3,29.69,East,101,13.0,18.0,88,0.00,,,0.00,318,Wunderground v.1.15,2013-09-08 15:31:00,
2013-09-08 10:36:00,75.3,71.5,29.69,East,92,10.0,18.0,88,0.00,,,0.00,631,Wunderground v.1.15,2013-09-08 15:36:00,
2013-09-08 10:41:00,75.8,72.0,29.69,East,92,11.0,13.0,88,0.00,,,0.00,592,Wunderground v.1.15,2013-09-08 15:41:00,
2013-09-08 10:46:00,75.8,71.7,29.69,ENE,74,9.0,15.0,87,0.00,,,0.00,636,Wunderground v.1.15,2013-09-08 15:46:00,
2013-09-08 10:51:00,75.9,71.8,29.69,East,94,11.0,13.0,87,0.00,,,0.00,652,Wunderground v.1.15,2013-09-08 15:51:00,
2013-09-08 10:56:00,76.3,72.1,29.69,East,96,13.0,16.0,87,0.00,,,0.00,659,Wunderground v.1.15,2013-09-08 15:56:00,
2013-09-08 11:01:00,76.4,72.2,29.69,ENE,72,9.0,13.0,87,0.00,,,0.00,573,Wunderground v.1.15,2013-09-08 16:01:00,
2013-09-08 11:06:00,76.5,72.0,29.69,ESE,104,13.0,18.0,86,0.00,,,0.00,640,Wunderground v.1.15,2013-09-08 16:06:00,
2013-09-08 11:11:00,77.1,72.6,29.69,East,98,15.0,17.0,86,0.00,,,0.00,649,Wunderground v.1.15,2013-09-08 16:11:00,
2013-09-08 11:16:00,77.2,72.7,29.68,East,97,10.0,18.0,86,0.00,,,0.00,652,Wunderground v.1.15,2013-09-08 16:16:00,
2013-09-08 11:21:00,77.6,72.7,29.68,East,83,18.0,21.0,85,0.00,,,0.00,671,Wunderground v.1.15,2013-09-08 16:21:00,
2013-09-08 11:26:00,78.0,73.1,29.68,East,96,9.0,21.0,85,0.00,,,0.00,679,Wunderground v.1.15,2013-09-08 16:26:00,
2013-09-08 11:31:00,78.1,72.9,29.67,ESE,104,10.0,15.0,84,0.00,,,0.00,661,Wunderground v.1.15,2013-09-08 16:31:00,
2013-09-08 11:36:00,78.5,73.3,29.67,East,96,13.0,18.0,84,0.00,,,0.00,675,Wunderground v.1.15,2013-09-08 16:36:00,
2013-09-08 11:41:00,79.0,74.1,29.67,East,98,8.0,13.0,85,0.00,,,0.00,698,Wunderground v.1.15,2013-09-08 16:41:00,
2013-09-08 11:46:00,79.2,73.9,29.67,ESE,114,7.0,16.0,84,0.00,,,0.00,701,Wunderground v.1.15,2013-09-08 16:46:00,
2013-09-08 11:51:00,79.6,74.3,29.67,East,86,16.0,16.0,84,0.00,,,0.00,721,Wunderground v.1.15,2013-09-08 16:51:00,
2013-09-08 11:56:00,79.7,73.7,29.67,East,96,14.0,17.0,82,0.00,,,0.00,719,Wunderground v.1.15,2013-09-08 16:56:00,
2013-09-08 12:01:00,80.0,74.0,29.67,ESE,104,12.0,17.0,82,0.00,,,0.00,726,Wunderground v.1.15,2013-09-08 17:01:00,
2013-09-08 12:06:00,80.3,74.3,29.67,ESE,103,14.0,17.0,82,0.00,,,0.00,735,Wunderground v.1.15,2013-09-08 17:06:00,
2013-09-08 12:11:00,80.8,75.2,29.67,ESE,105,11.0,15.0,83,0.00,,,0.00,745,Wunderground v.1.15,2013-09-08 17:11:00,
2013-09-08 12:16:00,81.0,74.6,29.67,East,84,11.0,15.0,81,0.00,,,0.00,745,Wunderground v.1.15,2013-09-08 17:16:00,
2013-09-08 12:21:00,81.5,74.7,29.67,East,93,13.0,15.0,80,0.00,,,0.00,756,Wunderground v.1.15,2013-09-08 17:21:00,
2013-09-08 12:26:00,81.7,75.3,29.66,ESE,112,10.0,15.0,81,0.00,,,0.00,763,Wunderground v.1.15,2013-09-08 17:26:00,
2013-09-08 12:31:00,82.0,74.8,29.66,SE,134,7.0,13.0,79,0.00,,,0.00,765,Wunderground v.1.15,2013-09-08 17:31:00,
2013-09-08 12:36:00,82.2,75.0,29.66,East,100,13.0,14.0,79,0.00,,,0.00,773,Wunderground v.1.15,2013-09-08 17:36:00,
2013-09-08 12:41:00,82.4,74.5,29.66,SE,140,10.0,16.0,77,0.00,,,0.00,784,Wunderground v.1.15,2013-09-08 17:41:00,
2013-09-08 12:46:00,82.6,75.8,29.66,ESE,111,9.0,16.0,80,0.00,,,0.00,784,Wunderground v.1.15,2013-09-08 17:46:00,
2013-09-08 12:51:00,82.6,74.7,29.66,ESE,111,7.0,12.0,77,0.00,,,0.00,786,Wunderground v.1.15,2013-09-08 17:51:00,
2013-09-08 12:56:00,82.9,75.3,29.66,East,94,9.0,16.0,78,0.00,,,0.00,784,Wunderground v.1.15,2013-09-08 17:56:00,
2013-09-08 13:01:00,83.2,75.6,29.66,ESE,106,12.0,16.0,78,0.00,,,0.00,800,Wunderground v.1.15,2013-09-08 18:01:00,
2013-09-08 13:06:00,83.4,75.8,29.66,ESE,110,3.0,16.0,78,0.00,,,0.00,796,Wunderground v.1.15,2013-09-08 18:06:00,
2013-09-08 13:15:00,83.4,75.8,29.65,SE,142,7.0,14.0,78,0.00,,,0.00,791,Wunderground v.1.15,2013-09-08 18:15:00,
2013-09-08 13:20:00,83.7,76.1,29.65,SE,134,9.0,10.0,78,0.00,,,0.00,793,Wunderground v.1.15,2013-09-08 18:20:00,
2013-09-08 13:25:00,83.7,75.3,29.65,ESE,102,9.0,16.0,76,0.00,,,0.00,798,Wunderground v.1.15,2013-09-08 18:25:00,
2013-09-08 13:30:00,84.0,75.6,29.65,SE,141,7.0,16.0,76,0.00,,,0.00,793,Wunderground v.1.15,2013-09-08 18:30:00,
2013-09-08 13:35:00,84.3,75.9,29.65,East,96,9.0,15.0,76,0.00,,,0.00,793,Wunderground v.1.15,2013-09-08 18:35:00,
2013-09-08 13:40:00,84.5,75.7,29.65,East,96,9.0,9.0,75,0.00,,,0.00,796,Wunderground v.1.15,2013-09-08 18:40:00,
2013-09-08 13:45:00,84.9,76.1,29.65,SE,137,7.0,13.0,75,0.00,,,0.00,800,Wunderground v.1.15,2013-09-08 18:45:00,
2013-09-08 13:50:00,84.9,76.1,29.64,SE,144,9.0,9.0,75,0.00,,,0.00,795,Wunderground v.1.15,2013-09-08 18:50:00,
2013-09-08 13:55:00,84.8,75.6,29.64,ESE,115,12.0,16.0,74,0.00,,,0.00,784,Wunderground v.1.15,2013-09-08 18:55:00,
2013-09-08 14:00:00,85.0,76.2,29.64,SSE,163,11.0,11.0,75,0.00,,,0.00,796,Wunderground v.1.15,2013-09-08 19:00:00,
2013-09-08 14:05:00,85.2,76.8,29.64,East,87,9.0,14.0,76,0.00,,,0.00,791,Wunderground v.1.15,2013-09-08 19:05:00,
2013-09-08 14:10:00,85.4,77.0,29.64,SE,130,5.0,11.0,76,0.00,,,0.00,786,Wunderground v.1.15,2013-09-08 19:10:00,
2013-09-08 14:15:00,85.6,76.8,29.64,SSE,158,7.0,11.0,75,0.00,,,0.00,775,Wunderground v.1.15,2013-09-08 19:15:00,
2013-09-08 14:20:00,85.6,75.9,29.63,East,82,8.0,9.0,73,0.00,,,0.00,780,Wunderground v.1.15,2013-09-08 19:20:00,
2013-09-08 14:25:00,85.6,76.4,29.63,SSE,161,7.0,15.0,74,0.00,,,0.00,777,Wunderground v.1.15,2013-09-08 19:25:00,
2013-09-08 14:30:00,85.6,75.5,29.63,SE,124,9.0,11.0,72,0.00,,,0.00,777,Wunderground v.1.15,2013-09-08 19:30:00,
2013-09-08 14:35:00,85.8,76.1,29.63,East,88,13.0,15.0,73,0.00,,,0.00,765,Wunderground v.1.15,2013-09-08 19:35:00,
2013-09-08 14:40:00,86.0,75.9,29.63,East,88,13.0,13.0,72,0.00,,,0.00,756,Wunderground v.1.15,2013-09-08 19:40:00,
2013-09-08 14:45:00,86.1,75.6,29.63,ESE,113,2.0,14.0,71,0.00,,,0.00,759,Wunderground v.1.15,2013-09-08 19:45:00,
2013-09-08 14:50:00,86.1,76.0,29.62,ESE,103,9.0,11.0,72,0.00,,,0.00,749,Wunderground v.1.15,2013-09-08 19:50:00,
2013-09-08 14:55:00,86.2,75.7,29.62,SE,146,8.0,16.0,71,0.00,,,0.00,740,Wunderground v.1.15,2013-09-08 19:55:00,
2013-09-08 15:00:00,86.1,76.4,29.62,East,86,10.0,10.0,73,0.00,,,0.00,735,Wunderground v.1.15,2013-09-08 20:00:00,
2013-09-08 15:05:00,86.4,76.7,29.61,East,89,10.0,16.0,73,0.00,,,0.00,728,Wunderground v.1.15,2013-09-08 20:05:00,
2013-09-08 15:10:00,86.5,76.0,29.61,SE,126,9.0,14.0,71,0.00,,,0.00,724,Wunderground v.1.15,2013-09-08 20:10:00,
2013-09-08 15:15:00,86.5,77.6,29.61,SE,146,12.0,17.0,75,0.00,,,0.00,715,Wunderground v.1.15,2013-09-08 20:15:00,
2013-09-08 15:20:00,86.6,75.6,29.61,SE,137,12.0,14.0,70,0.00,,,0.00,710,Wunderground v.1.15,2013-09-08 20:20:00,
2013-09-08 15:25:00,86.5,76.4,29.60,South,183,13.0,15.0,72,0.00,,,0.00,700,Wunderground v.1.15,2013-09-08 20:25:00,
2013-09-08 15:30:00,86.6,76.5,29.60,SSE,154,12.0,14.0,72,0.00,,,0.00,693,Wunderground v.1.15,2013-09-08 20:30:00,
2013-09-08 15:35:00,86.6,75.2,29.60,SE,132,10.0,16.0,69,0.00,,,0.00,684,Wunderground v.1.15,2013-09-08 20:35:00,
2013-09-08 15:40:00,86.9,76.4,29.59,SE,141,9.0,11.0,71,0.00,,,0.00,670,Wunderground v.1.15,2013-09-08 20:40:00,
2013-09-08 15:45:00,86.8,75.0,29.59,ESE,113,15.0,15.0,68,0.00,,,0.00,663,Wunderground v.1.15,2013-09-08 20:45:00,
2013-09-08 15:50:00,86.8,76.3,29.59,SE,130,10.0,13.0,71,0.00,,,0.00,654,Wunderground v.1.15,2013-09-08 20:50:00,
2013-09-08 15:55:00,86.9,75.5,29.59,SSE,149,12.0,15.0,69,0.00,,,0.00,640,Wunderground v.1.15,2013-09-08 20:55:00,
2013-09-08 16:00:00,86.9,74.6,29.59,SSE,153,14.0,14.0,67,0.00,,,0.00,640,Wunderground v.1.15,2013-09-08 21:00:00,
2013-09-08 16:05:00,87.0,75.6,29.58,SSE,155,12.0,17.0,69,0.00,,,0.00,621,Wunderground v.1.15,2013-09-08 21:05:00,
2013-09-08 16:10:00,87.0,74.7,29.58,SSE,152,10.0,14.0,67,0.00,,,0.00,615,Wunderground v.1.15,2013-09-08 21:10:00,
2013-09-08 16:15:00,87.1,75.7,29.58,SE,146,11.0,15.0,69,0.00,,,0.00,599,Wunderground v.1.15,2013-09-08 21:15:00,
2013-09-08 16:20:00,86.9,75.1,29.58,SSE,150,10.0,12.0,68,0.00,,,0.00,594,Wunderground v.1.15,2013-09-08 21:20:00,
2013-09-08 16:25:00,86.9,75.5,29.58,ESE,109,13.0,15.0,69,0.00,,,0.00,571,Wunderground v.1.15,2013-09-08 21:25:00,
2013-09-08 16:30:00,87.0,75.6,29.58,SSE,150,12.0,15.0,69,0.00,,,0.00,566,Wunderground v.1.15,2013-09-08 21:30:00,
2013-09-08 16:35:00,86.9,74.6,29.58,SE,138,9.0,15.0,67,0.00,,,0.00,548,Wunderground v.1.15,2013-09-08 21:35:00,
2013-09-08 16:40:00,86.9,75.5,29.58,SE,146,9.0,9.0,69,0.00,,,0.00,540,Wunderground v.1.15,2013-09-08 21:40:00,
2013-09-08 16:45:00,86.9,75.5,29.58,SSE,148,14.0,15.0,69,0.00,,,0.00,520,Wunderground v.1.15,2013-09-08 21:45:00,
2013-09-08 16:50:00,86.9,75.9,29.57,SE,136,8.0,14.0,70,0.00,,,0.00,503,Wunderground v.1.15,2013-09-08 21:50:00,
2013-09-08 16:55:00,86.8,75.8,29.57,SE,139,17.0,18.0,70,0.00,,,0.00,497,Wunderground v.1.15,2013-09-08 21:55:00,
2013-09-08 17:00:00,86.9,77.2,29.57,SE,138,10.0,10.0,73,0.00,,,0.00,483,Wunderground v.1.15,2013-09-08 22:00:00,
2013-09-08 17:05:00,86.8,75.8,29.57,SE,138,9.0,14.0,70,0.00,,,0.00,469,Wunderground v.1.15,2013-09-08 22:05:00,
2013-09-08 17:10:00,86.8,75.8,29.57,ESE,123,10.0,15.0,70,0.00,,,0.00,450,Wunderground v.1.15,2013-09-08 22:10:00,
2013-09-08 17:15:00,86.7,76.2,29.57,SE,142,16.0,16.0,71,0.00,,,0.00,434,Wunderground v.1.15,2013-09-08 22:15:00,
2013-09-08 17:20:00,86.8,76.3,29.56,SE,126,9.0,14.0,71,0.00,,,0.00,418,Wunderground v.1.15,2013-09-08 22:20:00,
2013-09-08 17:25:00,86.6,76.1,29.56,SE,130,10.0,15.0,71,0.00,,,0.00,410,Wunderground v.1.15,2013-09-08 22:25:00,
2013-09-08 17:30:00,86.6,76.5,29.56,SE,146,10.0,12.0,72,0.00,,,0.00,394,Wunderground v.1.15,2013-09-08 22:30:00,
2013-09-08 17:35:00,86.6,75.6,29.56,SE,146,10.0,16.0,70,0.00,,,0.00,378,Wunderground v.1.15,2013-09-08 22:35:00,
2013-09-08 17:40:00,86.5,75.5,29.56,SSE,148,11.0,12.0,70,0.00,,,0.00,366,Wunderground v.1.15,2013-09-08 22:40:00,
2013-09-08 17:45:00,86.5,76.0,29.56,SE,140,10.0,15.0,71,0.00,,,0.00,350,Wunderground v.1.15,2013-09-08 22:45:00,
2013-09-08 17:50:00,86.5,76.0,29.56,SE,136,13.0,15.0,71,0.00,,,0.00,338,Wunderground v.1.15,2013-09-08 22:50:00,
2013-09-08 17:55:00,86.4,75.5,29.56,SE,133,10.0,15.0,70,0.00,,,0.00,322,Wunderground v.1.15,2013-09-08 22:55:00,
2013-09-08 18:00:00,86.5,76.0,29.56,SSE,150,10.0,13.0,71,0.00,,,0.00,302,Wunderground v.1.15,2013-09-08 23:00:00,
2013-09-08 18:05:00,86.4,75.9,29.56,SSE,158,6.0,13.0,71,0.00,,,0.00,290,Wunderground v.1.15,2013-09-08 23:05:00,
2013-09-08 18:10:00,86.4,75.9,29.56,SSE,158,13.0,14.0,71,0.00,,,0.00,274,Wunderground v.1.15,2013-09-08 23:10:00,
2013-09-08 18:15:00,86.4,74.6,29.56,SSE,148,8.0,14.0,68,0.00,,,0.00,257,Wunderground v.1.15,2013-09-08 23:15:00,
2013-09-08 18:20:00,86.2,75.7,29.55,SE,139,10.0,11.0,71,0.00,,,0.00,243,Wunderground v.1.15,2013-09-08 23:20:00,
2013-09-08 18:25:00,85.8,75.3,29.55,SSE,147,10.0,15.0,71,0.00,,,0.00,227,Wunderground v.1.15,2013-09-08 23:25:00,
2013-09-08 18:31:00,85.7,75.2,29.55,SE,140,8.0,10.0,71,0.00,,,0.00,211,Wunderground v.1.15,2013-09-08 23:31:00,
2013-09-08 18:36:00,85.5,75.0,29.55,SE,136,7.0,14.0,71,0.00,,,0.00,163,Wunderground v.1.15,2013-09-08 23:36:00,
2013-09-08 18:41:00,85.2,75.1,29.55,SE,129,6.0,8.0,72,0.00,,,0.00,46,Wunderground v.1.15,2013-09-08 23:41:00,
2013-09-08 18:46:00,84.8,75.2,29.55,SE,145,11.0,11.0,73,0.00,,,0.00,42,Wunderground v.1.15,2013-09-08 23:46:00,
2013-09-08 18:51:00,84.6,75.4,29.55,SE,138,6.0,11.0,74,0.00,,,0.00,40,Wunderground v.1.15,2013-09-08 23:51:00,
2013-09-08 18:56:00,84.3,75.1,29.54,ESE,123,4.0,13.0,74,0.00,,,0.00,37,Wunderground v.1.15,2013-09-08 23:56:00,
2013-09-08 19:01:00,84.0,74.8,29.54,SE,142,8.0,12.0,74,0.00,,,0.00,35,Wunderground v.1.15,2013-09-09 00:01:00,
2013-09-08 19:06:00,83.6,74.8,29.54,SE,136,7.0,12.0,75,0.00,,,0.00,32,Wunderground v.1.15,2013-09-09 00:06:00,
2013-09-08 19:11:00,83.1,74.4,29.54,SE,136,8.0,9.0,75,0.00,,,0.00,30,Wunderground v.1.15,2013-09-09 00:11:00,
2013-09-08 19:16:00,82.8,74.5,29.54,SE,140,4.0,9.0,76,0.00,,,0.00,26,Wunderground v.1.15,2013-09-09 00:16:00,
2013-09-08 19:21:00,82.4,74.1,29.54,SE,141,5.0,7.0,76,0.00,,,0.00,25,Wunderground v.1.15,2013-09-09 00:21:00,
2013-09-08 19:26:00,82.0,74.1,29.54,SE,140,5.0,9.0,77,0.00,,,0.00,23,Wunderground v.1.15,2013-09-09 00:26:00,
2013-09-08 19:31:00,81.5,74.0,29.54,SE,140,4.0,5.0,78,0.00,,,0.00,19,Wunderground v.1.15,2013-09-09 00:31:00,
2013-09-08 19:36:00,81.1,73.6,29.54,SE,134,3.0,7.0,78,0.00,,,0.00,16,Wunderground v.1.15,2013-09-09 00:36:00,
2013-09-08 19:41:00,80.7,73.6,29.54,SE,133,5.0,5.0,79,0.00,,,0.00,12,Wunderground v.1.15,2013-09-09 00:41:00,
2013-09-08 19:46:00,80.3,73.2,29.54,SE,128,4.0,7.0,79,0.00,,,0.00,9,Wunderground v.1.15,2013-09-09 00:46:00,
2013-09-08 19:51:00,79.8,73.1,29.54,SE,128,4.0,4.0,80,0.00,,,0.00,5,Wunderground v.1.15,2013-09-09 00:51:00,
2013-09-08 19:56:00,79.5,73.2,29.54,SE,128,4.0,5.0,81,0.00,,,0.00,0,Wunderground v.1.15,2013-09-09 00:56:00,
2013-09-08 20:01:00,79.1,72.8,29.54,SE,128,4.0,6.0,81,0.00,,,0.00,0,Wunderground v.1.15,2013-09-09 01:01:00,
2013-09-08 20:06:00,78.9,72.6,29.54,SE,128,5.0,7.0,81,0.00,,,0.00,0,Wunderground v.1.15,2013-09-09 01:06:00,
2013-09-08 20:11:00,78.5,72.5,29.54,SE,128,5.0,5.0,82,0.00,,,0.00,0,Wunderground v.1.15,2013-09-09 01:11:00,
2013-09-08 20:16:00,78.2,72.3,29.54,SE,129,5.0,8.0,82,0.00,,,0.00,0,Wunderground v.1.15,2013-09-09 01:16:00,
2013-09-08 20:21:00,78.0,72.1,29.53,SE,129,4.0,6.0,82,0.00,,,0.00,0,Wunderground v.1.15,2013-09-09 01:21:00,
2013-09-08 20:26:00,77.9,72.3,29.53,SE,134,6.0,8.0,83,0.00,,,0.00,0,Wunderground v.1.15,2013-09-09 01:26:00,
2013-09-08 20:31:00,77.9,72.3,29.53,SE,134,5.0,7.0,83,0.00,,,0.00,0,Wunderground v.1.15,2013-09-09 01:31:00,
2013-09-08 20:36:00,77.8,72.2,29.53,SE,141,8.0,8.0,83,0.00,,,0.00,0,Wunderground v.1.15,2013-09-09 01:36:00,
2013-09-08 20:41:00,77.6,72.0,29.53,SE,141,5.0,8.0,83,0.00,,,0.00,0,Wunderground v.1.15,2013-09-09 01:41:00,
2013-09-08 20:46:00,77.5,72.3,29.53,SE,142,5.0,8.0,84,0.00,,,0.00,0,Wunderground v.1.15,2013-09-09 01:46:00,
2013-09-08 20:51:00,77.5,72.3,29.53,SE,145,6.0,7.0,84,0.00,,,0.00,0,Wunderground v.1.15,2013-09-09 01:51:00,
2013-09-08 20:57:00,77.6,72.4,29.53,SE,146,7.0,8.0,84,0.00,,,0.00,0,Wunderground v.1.15,2013-09-09 01:57:00,
2013-09-08 21:02:00,77.6,72.0,29.53,SE,144,8.0,8.0,83,0.00,,,0.00,0,Wunderground v.1.15,2013-09-09 02:02:00,
2013-09-08 21:08:00,77.7,72.1,29.53,SE,143,7.0,9.0,83,0.00,,,0.00,0,Wunderground v.1.15,2013-09-09 02:08:00,
2013-09-08 21:16:00,78.4,72.4,29.53,SSE,150,9.0,9.0,82,0.00,,,0.00,0,Wunderground v.1.15,2013-09-09 02:16:00,
2013-09-08 21:21:00,78.8,72.5,29.53,SSE,151,8.0,13.0,81,0.00,,,0.00,0,Wunderground v.1.15,2013-09-09 02:21:00,
2013-09-08 21:26:00,79.1,72.4,29.53,SSE,155,12.0,12.0,80,0.00,,,0.00,0,Wunderground v.1.15,2013-09-09 02:26:00,
2013-09-08 21:31:00,79.6,72.5,29.53,SSE,161,8.0,13.0,79,0.00,,,0.00,0,Wunderground v.1.15,2013-09-09 02:31:00,
2013-09-08 21:36:00,79.9,72.4,29.53,SSE,159,7.0,10.0,78,0.00,,,0.00,0,Wunderground v.1.15,2013-09-09 02:36:00,
2013-09-08 21:41:00,80.2,72.3,29.53,SSE,162,10.0,13.0,77,0.00,,,0.00,0,Wunderground v.1.15,2013-09-09 02:41:00,
2013-09-08 21:46:00,80.4,72.5,29.53,SSE,159,11.0,11.0,77,0.00,,,0.00,0,Wunderground v.1.15,2013-09-09 02:46:00,
2013-09-08 21:51:00,80.5,72.2,29.53,South,171,12.0,16.0,76,0.00,,,0.00,0,Wunderground v.1.15,2013-09-09 02:51:00,
2013-09-08 21:56:00,80.6,72.3,29.53,SSE,165,10.0,12.0,76,0.00,,,0.00,0,Wunderground v.1.15,2013-09-09 02:56:00,
2013-09-08 22:01:00,80.6,72.3,29.53,SSE,166,11.0,15.0,76,0.00,,,0.00,0,Wunderground v.1.15,2013-09-09 03:01:00,
2013-09-08 22:06:00,80.4,72.1,29.53,SSE,159,14.0,15.0,76,0.00,,,0.00,0,Wunderground v.1.15,2013-09-09 03:06:00,
2013-09-08 22:11:00,80.5,72.2,29.53,SSE,165,10.0,19.0,76,0.00,,,0.00,0,Wunderground v.1.15,2013-09-09 03:11:00,
2013-09-08 22:16:00,80.4,72.1,29.53,South,170,13.0,19.0,76,0.00,,,0.00,0,Wunderground v.1.15,2013-09-09 03:16:00,
2013-09-08 22:21:00,80.3,72.0,29.53,SSE,158,17.0,17.0,76,0.00,,,0.00,0,Wunderground v.1.15,2013-09-09 03:21:00,
2013-09-08 22:26:00,80.2,71.9,29.53,South,169,13.0,24.0,76,0.00,,,0.00,0,Wunderground v.1.15,2013-09-09 03:26:00,
2013-09-08 22:31:00,80.0,71.8,29.53,SSE,160,11.0,16.0,76,0.00,,,0.00,0,Wunderground v.1.15,2013-09-09 03:31:00,
2013-09-08 22:36:00,79.7,71.5,29.53,SSE,159,15.0,19.0,76,0.00,,,0.00,0,Wunderground v.1.15,2013-09-09 03:36:00,
2013-09-08 22:41:00,79.6,71.4,29.52,SSE,166,14.0,17.0,76,0.00,,,0.00,0,Wunderground v.1.15,2013-09-09 03:41:00,
2013-09-08 22:46:00,79.4,71.6,29.53,SSE,165,11.0,18.0,77,0.00,,,0.00,0,Wunderground v.1.15,2013-09-09 03:46:00,
2013-09-08 22:51:00,79.3,71.5,29.53,SSE,165,14.0,15.0,77,0.00,,,0.00,0,Wunderground v.1.15,2013-09-09 03:51:00,
2013-09-08 22:56:00,79.3,71.5,29.53,SSE,167,16.0,19.0,77,0.00,,,0.00,0,Wunderground v.1.15,2013-09-09 03:56:00,
2013-09-08 23:01:00,79.2,71.4,29.53,SSE,166,15.0,15.0,77,0.00,,,0.00,0,Wunderground v.1.15,2013-09-09 04:01:00,
2013-09-08 23:06:00,78.9,71.1,29.53,SSE,160,13.0,17.0,77,0.00,,,0.00,0,Wunderground v.1.15,2013-09-09 04:06:00,
2013-09-08 23:11:00,78.9,71.1,29.53,SSE,167,14.0,14.0,77,0.00,,,0.00,0,Wunderground v.1.15,2013-09-09 04:11:00,
2013-09-08 23:16:00,78.7,70.9,29.53,South,171,9.0,18.0,77,0.00,,,0.00,0,Wunderground v.1.15,2013-09-09 04:16:00,
2013-09-08 23:21:00,78.7,70.9,29.53,South,178,9.0,15.0,77,0.00,,,0.00,0,Wunderground v.1.15,2013-09-09 04:21:00,
2013-09-08 23:26:00,78.7,70.9,29.53,South,175,9.0,17.0,77,0.00,,,0.00,0,Wunderground v.1.15,2013-09-09 04:26:00,
2013-09-08 23:31:00,78.4,70.6,29.53,South,185,14.0,19.0,77,0.00,,,0.00,0,Wunderground v.1.15,2013-09-09 04:31:00,
2013-09-08 23:36:00,78.7,70.5,29.54,South,169,14.0,19.0,76,0.00,,,0.00,0,Wunderground v.1.15,2013-09-09 04:36:00,
2013-09-08 23:41:00,79.0,70.0,29.54,South,180,17.0,18.0,74,0.00,,,0.00,0,Wunderground v.1.15,2013-09-09 04:41:00,
2013-09-08 23:46:00,79.2,70.2,29.54,SSE,161,11.0,19.0,74,0.00,,,0.00,0,Wunderground v.1.15,2013-09-09 04:46:00,
2013-09-08 23:51:00,79.1,69.7,29.54,South,188,12.0,16.0,73,0.00,,,0.00,0,Wunderground v.1.15,2013-09-09 04:51:00,
2013-09-08 23:56:00,79.1,70.1,29.54,South,186,10.0,16.0,74,0.00,,,0.00,0,Wunderground v.1.15,2013-09-09 04:56:00,